Latest Weather Observations for Mount Buller

IDV60801

Issued at 1:22 pm EST Thursday 25 April 2024 (issued every 10 minutes, with the page automatically refreshed every 10 minutes)

About weather observations | Map of weather stations | Latest weather observations for VIC | Other Formats
Station Details ID: 083024 Name: MOUNT BULLER Lat: -37.15 Lon: 146.44 Height: 1707.0 m
Data from the previous 72 hours. | See also: Recent months at Mount Buller
Date/Time
EST
Temp
°C
App
Temp
°C
Dew
Point
°C
Rel
Hum
%
Delta-T
°C
Wind Press
QNH
hPa
Press
MSL
hPa
Rain since
9am
mm
Dir  Spd
km/h
Gust
km/h
Spd
kts
Gust
kts
25/01:00pm 2.5 -3.6 2.5 100 0.0 S 24 33 13 18 - - 0.0
25/12:30pm 1.9 -4.7 1.9 100 0.0 S 26 37 14 20 - - 0.0
25/12:00pm 2.1 -4.9 2.1 100 0.0 S 28 37 15 20 - - 0.0
25/11:30am 1.9 -4.7 1.9 100 0.0 S 26 39 14 21 - - 0.0
25/11:00am 1.8 -5.2 1.8 100 0.0 S 28 43 15 23 - - 0.0
25/10:40am 1.5 -5.6 1.5 100 0.0 S 28 46 15 25 - - 0.0
25/10:30am 1.1 -6.4 1.1 100 0.0 S 30 46 16 25 - - 0.0
25/10:00am 1.1 -6.4 1.1 100 0.0 S 30 41 16 22 - - 0.0
25/09:30am 1.0 -7.5 1.0 100 0.0 S 35 48 19 26 - - 0.0
25/09:08am 0.7 -7.8 0.7 100 0.0 S 35 54 19 29 - - 0.0
25/09:00am 0.9 -7.2 0.9 100 0.0 S 33 48 18 26 - - 1.8
25/08:30am 0.7 -8.2 0.7 100 0.0 SSW 37 52 20 28 - - 1.6
25/08:00am 1.0 -6.2 1.0 100 0.0 S 28 41 15 22 - - 1.4
25/07:30am 1.0 -6.9 1.0 100 0.0 SSW 32 43 17 23 - - 1.4
25/07:00am 0.8 -8.1 0.8 100 0.0 SSW 37 48 20 26 - - 1.2
25/06:30am 0.6 -9.1 0.6 100 0.0 SSW 41 50 22 27 - - 1.2
25/06:16am 0.6 -8.3 0.6 100 0.0 SSW 37 56 20 30 - - 1.2
25/06:00am 0.5 -8.8 0.5 100 0.0 SSW 39 52 21 28 - - 1.0
25/05:30am 0.4 -8.2 0.4 100 0.0 SSW 35 46 19 25 - - 0.8
25/05:00am 0.2 -8.0 0.2 100 0.0 SSW 33 48 18 26 - - 0.4
25/04:30am 0.1 -7.6 0.1 100 0.0 SSW 30 39 16 21 - - 0.4
25/04:00am 0.0 -7.7 0.0 100 0.0 SSW 30 50 16 27 - - 0.4
25/03:54am 0.1 -7.9 0.1 100 0.0 SSW 32 50 17 27 - - 0.4
25/03:30am -0.1 -8.2 -0.1 100 0.0 SSW 32 46 17 25 - - 0.4
25/03:05am -0.1 -8.7 -0.1 100 0.0 SSW 35 54 19 29 - - 0.4
25/03:00am -0.1 -8.4 -0.1 100 0.0 SSW 33 50 18 27 - - 0.4
25/02:30am -0.4 -8.7 -0.4 100 0.0 SSW 33 46 18 25 - - 0.4
25/02:00am -0.8 -8.2 -0.8 100 0.0 SSW 28 37 15 20 - - 0.4
25/01:30am -1.1 -8.2 -1.1 100 0.0 SSW 26 39 14 21 - - 0.4
25/01:00am -0.9 -7.2 -0.9 100 0.0 SSW 22 33 12 18 - - 0.4
25/12:30am -0.7 -7.0 -0.7 100 0.0 SSW 22 30 12 16 - - 0.4
25/12:00am -0.6 -7.2 -0.6 100 0.0 SSW 24 32 13 17 - - 0.4
 
Date/Time
EST
Temp
°C
App
Temp
°C
Dew
Point
°C
Rel
Hum
%
Delta-T
°C
Wind Press
QNH
hPa
Press
MSL
hPa
Rain since
9am
mm
Dir  Spd
km/h
Gust
km/h
Spd
kts
Gust
kts
24/11:30pm -0.6 -7.2 -0.6 100 0.0 SSW 24 37 13 20 - - 0.4
24/11:00pm -0.6 -7.2 -0.6 100 0.0 S 24 32 13 17 - - 0.4
24/10:30pm -0.6 -6.5 -0.6 100 0.0 S 20 33 11 18 - - 0.4
24/10:00pm -0.7 -6.6 -0.7 100 0.0 S 20 35 11 19 - - 0.4
24/09:30pm -0.7 -7.3 -0.7 100 0.0 S 24 35 13 19 - - 0.4
24/09:00pm -0.7 -6.6 -0.7 100 0.0 S 20 28 11 15 - - 0.4
24/08:30pm -0.8 -8.2 -0.8 100 0.0 S 28 37 15 20 - - 0.4
24/08:00pm -0.8 -7.5 -0.8 100 0.0 SSW 24 32 13 17 - - 0.4
24/07:30pm -0.8 -7.8 -0.8 100 0.0 SSW 26 33 14 18 - - 0.4
24/07:00pm -0.2 -6.4 -0.2 100 0.0 S 22 35 12 19 - - 0.4
24/06:30pm 0.0 -6.2 0.0 100 0.0 S 22 33 12 18 - - 0.4
24/06:00pm -0.1 -6.3 -0.1 100 0.0 SSW 22 39 12 21 - - 0.4
24/05:30pm 0.2 -4.6 0.2 100 0.0 SSW 15 24 8 13 - - 0.2
24/05:00pm 0.3 -5.8 0.3 100 0.0 SSW 22 35 12 19 - - 0.2
24/04:30pm 0.4 -6.1 0.4 100 0.0 SSW 24 35 13 19 - - 0.2
24/04:00pm 0.4 -6.1 0.4 100 0.0 SSW 24 33 13 18 - - 0.2
24/03:30pm 0.6 -5.1 0.5 99 0.0 S 20 33 11 18 - - 0.2
24/03:00pm 1.0 -4.6 0.9 99 0.0 SSW 20 32 11 17 - - 0.2
24/02:30pm 1.9 -4.7 1.8 99 0.0 S 26 37 14 20 - - 0.2
24/02:00pm 1.2 -4.2 1.1 99 0.0 S 19 26 10 14 - - 0.2
24/01:30pm 1.7 -3.8 0.8 94 0.4 SSW 19 28 10 15 - - 0.2
24/01:00pm 1.2 -5.2 1.2 100 0.0 SSW 24 32 13 17 - - 0.2
24/12:30pm 1.6 -5.5 1.6 100 0.0 S 28 48 15 26 - - 0.2
24/12:25pm 1.0 -6.2 1.0 100 0.0 SSW 28 46 15 25 - - 0.2
24/12:00pm 1.1 -6.8 1.1 100 0.0 S 32 44 17 24 - - 0.0
24/11:30am 1.0 -4.6 1.0 100 0.0 S 20 30 11 16 - - 0.0
24/11:00am 1.0 -4.6 1.0 100 0.0 S 20 33 11 18 - - 0.0
24/10:30am 0.7 -6.1 0.7 100 0.0 S 26 39 14 21 - - 0.0
24/10:00am 1.0 -6.5 1.0 100 0.0 S 30 43 16 23 - - 0.0
24/09:30am 0.0 -7.3 0.0 100 0.0 S 28 37 15 20 - - 0.0
24/09:00am -0.1 -8.4 -0.1 100 0.0 S 33 46 18 25 - - 8.0
24/08:35am -0.1 -7.4 -0.1 100 0.0 S 28 46 15 25 - - 8.0
24/08:30am -0.1 -8.2 -0.1 100 0.0 S 32 48 17 26 - - 8.0
24/08:14am -0.1 -7.8 -0.1 100 0.0 SSW 30 48 16 26 - - 7.8
24/08:00am -0.1 -8.4 -0.1 100 0.0 SSW 33 46 18 25 - - 7.8
24/07:36am -0.1 -8.2 -0.1 100 0.0 S 32 50 17 27 - - 7.8
24/07:30am -0.1 -8.4 -0.1 100 0.0 S 33 46 18 25 - - 7.8
24/07:01am -0.4 -8.5 -0.4 100 0.0 S 32 50 17 27 - - 7.8
24/07:00am -0.4 -8.1 -0.4 100 0.0 S 30 43 16 23 - - 7.8
24/06:30am -0.4 -8.1 -0.4 100 0.0 S 30 44 16 24 - - 7.8
24/06:04am -0.1 -7.4 -0.1 100 0.0 SSW 28 46 15 25 - - 7.6
24/06:00am -0.1 -8.4 -0.1 100 0.0 SSW 33 48 18 26 - - 7.6
24/05:52am -0.1 -7.4 -0.1 100 0.0 S 28 48 15 26 - - 7.6
24/05:30am 0.4 -6.1 0.4 100 0.0 SSW 24 41 13 22 - - 7.6
24/05:00am 0.6 -7.4 0.6 100 0.0 WSW 32 50 17 27 - - 7.6
24/04:53am 0.9 -7.0 0.9 100 0.0 WSW 32 50 17 27 - - 7.6
24/04:30am 1.5 -4.8 1.5 100 0.0 W 24 37 13 20 - - 7.6
24/04:00am 1.4 -7.0 1.4 100 0.0 W 35 59 19 32 - - 7.6
24/03:30am 2.0 -5.0 2.0 100 0.0 W 28 48 15 26 - - 7.4
24/03:00am 2.5 -4.4 2.5 100 0.0 WNW 28 59 15 32 - - 6.4
24/02:30am 4.2 -2.4 4.2 100 0.0 W 28 50 15 27 - - 3.2
24/02:16am 4.3 -2.3 4.3 100 0.0 WNW 28 50 15 27 - - 2.0
24/02:00am 4.6 -0.2 4.6 100 0.0 WNW 19 39 10 21 - - 0.2
24/01:47am 4.9 -2.5 4.8 99 0.0 NNW 33 65 18 35 - - 0.2
24/01:30am 5.2 -3.7 5.1 99 0.0 NNW 41 74 22 40 - - 0.2
24/01:18am 5.6 -4.0 4.6 93 0.5 NNW 44 78 24 42 - - 0.0
24/01:04am 6.4 -3.7 3.7 83 1.3 NNW 46 80 25 43 - - 0.0
24/01:00am 6.5 -5.5 3.7 82 1.3 NNW 56 82 30 44 - - 0.0
24/12:30am 6.9 -6.0 4.2 83 1.3 NNW 61 85 33 46 - - 0.0
24/12:00am 8.7 -4.4 2.9 67 2.7 NNW 61 95 33 51 - - 0.0
 
Date/Time
EST
Temp
°C
App
Temp
°C
Dew
Point
°C
Rel
Hum
%
Delta-T
°C
Wind Press
QNH
hPa
Press
MSL
hPa
Rain since
9am
mm
Dir  Spd
km/h
Gust
km/h
Spd
kts
Gust
kts
23/11:30pm 8.9 -4.6 2.7 65 2.9 NNW 63 91 34 49 - - 0.0
23/11:00pm 9.0 -3.3 3.0 66 2.8 NNW 57 96 31 52 - - 0.0
23/10:52pm 9.0 -3.7 2.8 65 2.9 NNW 59 96 32 52 - - 0.0
23/10:30pm 8.5 -2.9 2.9 68 2.6 NNW 52 74 28 40 - - 0.0
23/10:00pm 8.8 -2.6 2.6 65 2.9 NNW 52 74 28 40 - - 0.0
23/09:30pm 8.8 -1.9 2.8 66 2.8 NNW 48 69 26 37 - - 0.0
23/09:11pm 8.7 -1.9 2.9 67 2.7 NNW 48 74 26 40 - - 0.0
23/09:00pm 8.5 -2.1 3.1 69 2.6 NNW 48 65 26 35 - - 0.0
23/08:35pm 8.3 -1.9 3.2 70 2.4 NNW 46 65 25 35 - - 0.0
23/08:30pm 8.6 -2.0 3.2 69 2.6 NNW 48 65 26 35 - - 0.0
23/08:00pm 8.8 -1.7 3.4 69 2.6 NNW 48 67 26 36 - - 0.0
23/07:32pm 9.0 -1.5 3.4 68 2.7 NNW 48 67 26 36 - - 0.0
23/07:30pm 8.9 -1.2 3.5 69 2.6 NNW 46 59 25 32 - - 0.0
23/07:19pm 8.7 -1.4 3.7 71 2.4 NNW 46 65 25 35 - - 0.0
23/07:00pm 8.6 -1.5 4.0 73 2.2 NNW 46 63 25 34 - - 0.0
23/06:30pm 8.3 -1.6 4.9 79 1.7 N 46 63 25 34 - - 0.0
23/06:00pm 8.2 -1.7 4.8 79 1.7 N 46 59 25 32 - - 0.0
23/05:30pm 7.9 -0.5 5.4 84 1.2 N 39 50 21 27 - - 0.0
23/05:04pm 8.1 0.0 5.4 83 1.3 N 37 56 20 30 - - 0.0
23/05:00pm 8.0 0.3 5.5 84 1.2 N 35 48 19 26 - - 0.0
23/04:30pm 8.5 1.2 5.4 81 1.5 N 33 46 18 25 - - 0.0
23/04:00pm 9.4 2.0 5.2 75 2.1 N 33 46 18 25 - - 0.0
23/03:34pm 9.5 2.5 4.3 70 2.5 NNW 30 48 16 26 - - 0.0
23/03:30pm 10.4 3.2 4.8 68 2.8 NNW 32 48 17 26 - - 0.0
23/03:00pm 10.3 2.8 4.5 67 2.9 NNW 33 46 18 25 - - 0.0
23/02:30pm 10.6 3.3 4.7 67 2.9 NNW 32 43 17 23 - - 0.0
23/02:00pm 10.3 2.8 4.5 67 2.9 NNW 33 50 18 27 - - 0.0
23/01:30pm 9.5 0.8 4.1 69 2.6 NNW 39 54 21 29 - - 0.0
23/01:00pm 10.9 2.3 4.8 66 3.1 NNW 39 54 21 29 - - 0.0
23/12:31pm 8.9 1.3 3.9 71 2.4 NNW 33 52 18 28 - - 0.0
23/12:30pm 9.3 1.8 4.5 72 2.4 NNW 33 50 18 27 - - 0.0
23/12:00pm 10.3 2.1 4.5 67 2.9 NNW 37 50 20 27 - - 0.0
23/11:30am 9.9 1.6 4.3 68 2.8 NNW 37 54 20 29 - - 0.0
23/11:00am 10.0 0.6 4.2 67 2.8 NNW 43 54 23 29 - - 0.0
23/10:30am 9.3 0.1 3.7 68 2.7 NNW 41 59 22 32 - - 0.0
23/10:25am 9.6 0.1 4.0 68 2.7 NNW 43 61 23 33 - - 0.0
23/10:00am 9.5 0.3 3.7 67 2.8 NNW 41 56 22 30 - - 0.0
23/09:30am 9.0 -1.0 4.4 73 2.3 NNW 46 59 25 32 - - 0.0
23/09:00am 8.7 -1.0 4.1 73 2.2 NNW 44 61 24 33 - - 0.0
23/08:37am 8.4 -0.8 3.7 72 2.3 NNW 41 59 22 32 - - 0.0
23/08:30am 8.3 -0.5 3.8 73 2.2 NNW 39 52 21 28 - - 0.0
23/08:00am 7.7 -1.2 2.8 71 2.3 NNW 39 54 21 29 - - 0.0
23/07:30am 7.2 -2.2 2.1 70 2.3 NNW 41 57 22 31 - - 0.0
23/07:00am 7.1 -2.4 1.8 69 2.4 NNW 41 59 22 32 - - 0.0
23/06:58am 7.0 -2.5 1.5 68 2.5 NNW 41 59 22 32 - - 0.0
23/06:30am 6.9 -3.4 0.4 63 2.9 NNW 44 56 24 30 - - 0.0
23/06:00am 7.1 -3.6 -0.1 60 3.1 NNW 46 61 25 33 - - 0.0
23/05:30am 7.3 -2.8 -2.2 51 3.9 NNW 41 54 22 29 - - 0.0
23/05:04am 7.5 -3.3 -3.6 45 4.5 NNW 44 63 24 34 - - 0.0
23/05:00am 7.7 -3.0 -4.1 43 4.7 NNW 43 56 23 30 - - 0.0
23/04:49am 7.8 -3.0 -5.3 39 5.1 NNW 43 61 23 33 - - 0.0
23/04:30am 8.3 -3.3 -7.8 31 5.9 NNW 46 61 25 33 - - 0.0
23/04:03am 8.4 -2.7 -8.1 30 6.0 NNW 43 61 23 33 - - 0.0
23/04:00am 8.0 -3.0 -7.7 32 5.7 NNW 43 59 23 32 - - 0.0
23/03:39am 7.9 -2.6 -5.9 37 5.3 NNW 41 61 22 33 - - 0.0
23/03:30am 7.1 -2.8 -4.3 44 4.5 NNW 39 50 21 27 - - 0.0
23/03:00am 7.7 -2.3 -4.7 41 4.9 NNW 39 56 21 30 - - 0.0
23/02:30am 7.9 -2.0 -3.9 43 4.7 NNW 39 57 21 31 - - 0.0
23/02:00am 7.1 -2.6 -2.1 52 3.8 NNW 39 46 21 25 - - 0.0
23/01:30am 6.8 -2.9 -2.1 53 3.7 NNW 39 46 21 25 - - 0.0
23/01:00am 7.5 -2.5 -4.6 42 4.7 NNW 39 46 21 25 - - 0.0
23/12:30am 7.6 -1.9 -8.0 32 5.6 NNW 35 43 19 23 - - 0.0
23/12:00am 8.1 -1.4 -8.0 31 5.9 NNW 35 43 19 23 - - 0.0
 
Date/Time
EST
Temp
°C
App
Temp
°C
Dew
Point
°C
Rel
Hum
%
Delta-T
°C
Wind Press
QNH
hPa
Press
MSL
hPa
Rain since
9am
mm
Dir  Spd
km/h
Gust
km/h
Spd
kts
Gust
kts
22/11:30pm 7.9 -0.9 -6.6 35 5.4 NNW 32 41 17 22 - - 0.0
22/11:00pm 8.3 -0.3 -8.2 30 6.0 NNW 30 39 16 21 - - 0.0
22/10:30pm 8.9 0.4 -11.1 23 6.8 NNW 28 37 15 20 - - 0.0
22/10:00pm 8.8 0.0 -10.6 24 6.7 NNW 30 35 16 19 - - 0.0
22/09:30pm 8.6 0.9 -10.8 24 6.7 NNW 24 32 13 17 - - 0.0
22/09:00pm 8.1 1.6 -8.0 31 5.9 NNW 19 24 10 13 - - 0.0
22/08:30pm 7.8 1.3 -8.2 31 5.8 NNW 19 20 10 11 - - 0.0
22/08:00pm 7.7 1.6 -7.9 32 5.7 NNW 17 20 9 11 - - 0.0
22/07:30pm 7.5 2.4 -5.2 40 4.9 NNW 13 19 7 10 - - 0.0
22/07:00pm 7.9 2.6 -7.0 34 5.5 NW 13 17 7 9 - - 0.0
22/06:30pm 8.1 3.3 -6.4 35 5.5 NW 11 17 6 9 - - 0.0
22/06:00pm 8.4 3.4 -8.6 29 6.1 WNW 11 13 6 7 - - 0.0
22/05:30pm 8.7 6.2 4.9 77 1.9 NW 7 11 4 6 - - 0.0
22/05:00pm 10.4 7.4 4.3 66 3.0 NW 9 11 5 6 - - 0.0
22/04:30pm 10.8 8.0 5.3 69 2.8 NW 9 13 5 7 - - 0.0
22/04:00pm 11.7 8.2 5.3 65 3.3 NW 13 17 7 9 - - 0.0
22/03:30pm 11.9 7.6 1.3 48 5.0 NW 13 19 7 10 - - 0.0
22/03:00pm 12.6 8.3 0.7 44 5.5 NW 13 19 7 10 - - 0.0
22/02:30pm 12.5 8.1 0.6 44 5.5 NNW 13 20 7 11 - - 0.0
22/02:00pm 13.9 8.5 -4.3 28 7.7 NW 15 22 8 12 - - 0.0
22/01:30pm 13.4 7.4 -6.2 25 7.9 NW 17 22 9 12 - - 0.0

Other formats

Comma delimited format used in spreadsheet applications
http://www.bom.gov.au/fwo/IDV60801/IDV60801.94894.axf

JavaScript Object Notation format (JSON) in row-major order
http://www.bom.gov.au/fwo/IDV60801/IDV60801.94894.json

Data quality

Most of these data are generated automatically and are frequently updated. Quality checks on data are not normally performed. It is possible for incorrect values to appear. Refer to information at About Latest Weather Observations and please check the disclaimer before using these data.